createdAt,value
2018-09-20T00:01:08.243Z,6.70
2018-09-20T00:03:36.687Z,7.40
2018-09-20T00:06:05.143Z,6.73
2018-09-20T00:08:33.577Z,6.57
2018-09-20T00:11:02.058Z,6.93
2018-09-20T00:13:30.484Z,6.50
2018-09-20T00:15:58.990Z,6.57
2018-09-20T00:18:27.447Z,6.40
2018-09-20T00:20:55.884Z,6.50
2018-09-20T00:23:24.301Z,6.23
2018-09-20T00:25:52.753Z,5.83
2018-09-20T00:28:21.192Z,6.30
2018-09-20T00:30:49.906Z,6.50
2018-09-20T00:33:18.326Z,6.13
2018-09-20T00:35:46.770Z,6.37
2018-09-20T00:38:15.204Z,6.50
2018-09-20T00:40:43.652Z,6.80
2018-09-20T00:43:12.126Z,6.60
2018-09-20T00:45:40.678Z,5.80
2018-09-20T00:48:09.128Z,7.00
2018-09-20T00:50:37.738Z,6.33
2018-09-20T00:53:06.670Z,6.37
2018-09-20T00:55:35.094Z,6.13
2018-09-20T00:58:03.550Z,6.80
2018-09-20T01:00:32.015Z,6.47
2018-09-20T01:03:00.476Z,6.47
2018-09-20T01:05:28.929Z,6.30
2018-09-20T01:07:57.451Z,6.53
2018-09-20T01:10:25.862Z,5.70
2018-09-20T01:12:54.313Z,6.30
2018-09-20T01:15:22.775Z,6.70
2018-09-20T01:17:51.244Z,6.10
2018-09-20T01:20:19.705Z,7.00
2018-09-20T01:22:48.187Z,7.73
2018-09-20T01:25:19.522Z,6.30
2018-09-20T01:27:48.101Z,6.93
2018-09-20T01:30:16.565Z,6.57
2018-09-20T01:32:45.079Z,7.40
2018-09-20T01:35:13.591Z,6.97
2018-09-20T01:37:42.495Z,6.73
2018-09-20T01:40:10.974Z,6.77
2018-09-20T01:42:39.448Z,6.23
2018-09-20T01:45:07.954Z,6.20
2018-09-20T01:47:36.415Z,6.43
2018-09-20T01:50:05.297Z,6.53
2018-09-20T01:52:33.745Z,6.10
2018-09-20T01:55:02.185Z,6.47
2018-09-20T01:57:30.670Z,5.87
2018-09-20T01:59:59.101Z,5.67
2018-09-20T02:02:27.628Z,6.30
2018-09-20T02:04:56.147Z,6.80
2018-09-20T02:07:24.587Z,6.20
2018-09-20T02:09:53.065Z,5.83
2018-09-20T02:12:21.549Z,6.90
2018-09-20T02:14:55.647Z,6.77
2018-09-20T02:17:24.093Z,5.60
2018-09-20T02:19:53.055Z,6.50
2018-09-20T02:22:21.491Z,6.30
2018-09-20T02:24:49.945Z,5.97
2018-09-20T02:27:18.377Z,6.57
2018-09-20T02:29:46.845Z,5.80
2018-09-20T02:32:15.306Z,5.90
2018-09-20T02:34:43.762Z,5.87
2018-09-20T02:37:12.197Z,6.40
2018-09-20T02:39:40.690Z,6.40
2018-09-20T02:42:09.182Z,6.30
2018-09-20T02:44:37.627Z,6.27
2018-09-20T02:47:06.053Z,6.00
2018-09-20T02:49:34.502Z,6.17
2018-09-20T02:52:02.949Z,6.03
2018-09-20T02:54:31.393Z,6.10
2018-09-20T02:56:59.817Z,5.73
2018-09-20T02:59:28.269Z,6.83
2018-09-20T03:01:56.841Z,6.57
2018-09-20T03:04:25.311Z,5.90
2018-09-20T03:06:53.812Z,6.70
2018-09-20T03:09:22.277Z,5.97
2018-09-20T03:11:50.718Z,6.40
2018-09-20T03:14:19.220Z,8.53
2018-09-20T03:16:47.620Z,9.93
2018-09-20T03:19:16.107Z,9.70
2018-09-20T03:21:44.539Z,7.97
2018-09-20T03:24:13.029Z,8.03
2018-09-20T03:26:41.495Z,6.77
2018-09-20T03:29:09.977Z,6.60
2018-09-20T03:31:38.424Z,6.40
2018-09-20T03:34:06.864Z,6.10
2018-09-20T03:36:35.352Z,6.30
2018-09-20T03:39:05.074Z,6.03
2018-09-20T03:41:33.518Z,5.87
2018-09-20T03:44:02.061Z,6.30
2018-09-20T03:46:30.557Z,6.83
2018-09-20T03:48:59.004Z,6.47
2018-09-20T03:51:27.462Z,6.57
2018-09-20T03:53:55.933Z,6.70
2018-09-20T03:56:24.424Z,6.23
2018-09-20T03:58:52.880Z,6.80
2018-09-20T04:01:21.326Z,6.20
2018-09-20T04:03:49.756Z,6.07
2018-09-20T04:06:18.344Z,6.20
2018-09-20T04:08:46.804Z,5.93
2018-09-20T04:11:15.268Z,5.67
2018-09-20T04:13:43.866Z,5.97
2018-09-20T04:16:12.513Z,5.63
2018-09-20T04:18:40.986Z,6.03
2018-09-20T04:21:09.472Z,6.00
2018-09-20T04:23:37.918Z,6.20
2018-09-20T04:26:06.854Z,6.33
2018-09-20T04:28:35.278Z,5.70
2018-09-20T04:31:03.860Z,5.87
2018-09-20T04:33:32.290Z,6.00
2018-09-20T04:36:00.744Z,6.10
2018-09-20T04:38:29.197Z,6.13
2018-09-20T04:40:57.664Z,6.70
2018-09-20T04:43:26.110Z,6.30
2018-09-20T04:45:54.580Z,5.93
2018-09-20T04:48:23.056Z,5.93
2018-09-20T04:50:51.525Z,5.97
2018-09-20T04:53:19.993Z,6.20
2018-09-20T04:55:48.456Z,6.17
2018-09-20T04:58:16.926Z,5.77
2018-09-20T05:00:45.404Z,6.23
2018-09-20T05:03:13.866Z,6.10
2018-09-20T05:05:42.340Z,6.57
2018-09-20T05:08:10.844Z,6.37
2018-09-20T05:10:39.308Z,6.30
2018-09-20T05:13:07.810Z,5.23
2018-09-20T05:15:36.258Z,6.47
2018-09-20T05:18:04.703Z,6.50
2018-09-20T05:20:33.160Z,6.20
2018-09-20T05:23:01.628Z,6.30
2018-09-20T05:25:30.115Z,7.13
2018-09-20T05:27:58.590Z,6.17
2018-09-20T05:30:27.133Z,6.50
2018-09-20T05:32:55.595Z,6.53
2018-09-20T05:35:24.114Z,6.90
2018-09-20T05:37:52.646Z,6.50
2018-09-20T05:40:21.209Z,6.53
2018-09-20T05:42:50.115Z,6.27
2018-09-20T05:45:18.584Z,6.20
2018-09-20T05:47:47.107Z,6.47
2018-09-20T05:50:15.562Z,7.00
2018-09-20T05:52:44.829Z,6.93
2018-09-20T05:55:13.630Z,6.93
2018-09-20T05:57:42.075Z,6.13
2018-09-20T06:00:10.830Z,6.43
2018-09-20T06:02:39.275Z,6.03
2018-09-20T06:05:07.743Z,6.00
2018-09-20T06:07:36.209Z,5.87
2018-09-20T06:10:04.795Z,6.13
2018-09-20T06:12:33.217Z,6.87
2018-09-20T06:15:01.720Z,6.20
2018-09-20T06:17:30.235Z,5.40
2018-09-20T06:19:59.553Z,6.07
2018-09-20T06:22:27.983Z,5.20
2018-09-20T06:24:56.444Z,5.87
2018-09-20T06:27:25.229Z,5.97
2018-09-20T06:29:53.745Z,5.33
2018-09-20T06:32:22.220Z,5.53
2018-09-20T06:34:50.673Z,5.40
2018-09-20T06:37:19.112Z,6.10
2018-09-20T06:39:47.556Z,5.43
2018-09-20T06:42:16.021Z,5.40
2018-09-20T06:44:44.479Z,5.90
2018-09-20T06:47:12.909Z,6.57
2018-09-20T06:49:41.331Z,6.00
2018-09-20T06:52:09.797Z,5.97
2018-09-20T06:54:38.284Z,5.80
2018-09-20T06:57:06.758Z,5.83
2018-09-20T06:59:35.225Z,6.70
2018-09-20T07:02:03.803Z,5.70
2018-09-20T07:04:32.261Z,5.77
2018-09-20T07:07:00.792Z,6.07
2018-09-20T07:09:29.257Z,6.10
2018-09-20T07:12:28.345Z,6.77
2018-09-20T07:14:56.871Z,6.33
2018-09-20T07:17:25.330Z,5.43
2018-09-20T07:19:54.077Z,5.40
2018-09-20T07:22:22.577Z,5.47
2018-09-20T07:24:51.129Z,5.50
2018-09-20T07:27:19.607Z,6.00
2018-09-20T07:29:48.077Z,6.00
2018-09-20T07:32:16.573Z,5.97
2018-09-20T07:34:45.163Z,5.60
2018-09-20T07:37:13.681Z,5.33
2018-09-20T07:39:42.274Z,6.27
2018-09-20T07:42:10.752Z,5.53
2018-09-20T07:44:39.299Z,6.07
2018-09-20T07:47:07.842Z,5.87
2018-09-20T07:49:36.314Z,6.17
2018-09-20T07:52:04.858Z,6.13
2018-09-20T07:54:33.334Z,6.07
2018-09-20T07:57:01.928Z,5.67
2018-09-20T07:59:30.515Z,6.10
2018-09-20T08:01:59.042Z,6.27
2018-09-20T08:04:27.505Z,6.43
2018-09-20T08:06:56.015Z,5.90
2018-09-20T08:09:24.519Z,5.90
2018-09-20T08:11:53.598Z,5.13
2018-09-20T08:14:22.164Z,5.20
2018-09-20T08:16:50.811Z,5.33
2018-09-20T08:19:19.416Z,5.77
2018-09-20T08:21:47.924Z,5.27
2018-09-20T08:24:16.402Z,5.10
2018-09-20T08:26:44.931Z,5.27
2018-09-20T08:29:13.392Z,4.90
2018-09-20T08:31:41.857Z,4.60
2018-09-20T08:34:10.392Z,4.60
2018-09-20T08:36:38.886Z,4.80
2018-09-20T08:39:10.296Z,5.13
2018-09-20T08:41:38.899Z,4.43
2018-09-20T08:44:07.890Z,4.17
2018-09-20T08:46:36.430Z,4.03
2018-09-20T08:49:12.160Z,4.30
2018-09-20T08:51:40.632Z,3.80
2018-09-20T08:54:09.098Z,4.20
2018-09-20T08:56:37.561Z,4.30
2018-09-20T08:59:06.057Z,3.80
2018-09-20T09:01:34.510Z,4.17
2018-09-20T09:04:03.000Z,3.73
2018-09-20T09:06:31.472Z,3.53
2018-09-20T09:08:59.936Z,3.60
2018-09-20T09:11:28.389Z,3.50
2018-09-20T09:13:56.850Z,3.47
2018-09-20T09:16:25.313Z,4.03
2018-09-20T09:18:53.785Z,4.10
2018-09-20T09:21:22.378Z,3.50
2018-09-20T09:23:50.867Z,3.23
2018-09-20T09:26:19.344Z,3.33
2018-09-20T09:28:47.974Z,4.00
2018-09-20T09:31:16.505Z,4.03
2018-09-20T09:33:45.095Z,3.97
2018-09-20T09:36:13.573Z,3.20
2018-09-20T09:38:42.033Z,3.63
2018-09-20T09:41:10.479Z,4.27
2018-09-20T09:43:38.929Z,3.73
2018-09-20T09:46:07.405Z,3.10
2018-09-20T09:48:35.838Z,3.17
2018-09-20T09:51:04.318Z,3.60
2018-09-20T09:53:32.937Z,2.93
2018-09-20T09:56:02.151Z,3.57
2018-09-20T09:58:31.265Z,3.23
2018-09-20T10:00:59.793Z,3.20
2018-09-20T10:03:34.891Z,3.53
2018-09-20T10:06:03.359Z,3.60
2018-09-20T10:08:31.797Z,3.20
2018-09-20T10:11:00.239Z,2.80
2018-09-20T10:13:28.758Z,3.17
2018-09-20T10:15:57.179Z,3.77
2018-09-20T10:18:25.685Z,3.10
2018-09-20T10:20:54.185Z,4.07
2018-09-20T10:23:22.697Z,2.77
2018-09-20T10:25:51.147Z,2.93
2018-09-20T10:28:19.633Z,3.63
2018-09-20T10:30:48.059Z,3.17
2018-09-20T10:33:16.597Z,2.93
2018-09-20T10:35:45.059Z,3.30
2018-09-20T10:38:13.645Z,3.57
2018-09-20T10:40:42.113Z,3.30
2018-09-20T10:43:10.587Z,3.23
2018-09-20T10:45:39.075Z,3.33
2018-09-20T10:48:07.571Z,3.53
2018-09-20T10:50:36.059Z,2.90
2018-09-20T10:53:04.533Z,3.37
2018-09-20T10:55:33.043Z,2.57
2018-09-20T10:58:01.489Z,3.40
2018-09-20T11:00:30.053Z,3.33
2018-09-20T11:02:58.644Z,3.53
2018-09-20T11:05:27.211Z,2.70
2018-09-20T11:07:55.716Z,3.00
2018-09-20T11:10:24.249Z,3.20
2018-09-20T11:12:52.702Z,2.73
2018-09-20T11:15:21.154Z,3.10
2018-09-20T11:17:49.643Z,2.73
2018-09-20T11:20:18.127Z,3.40
2018-09-20T11:22:46.592Z,3.30
2018-09-20T11:25:15.005Z,3.43
2018-09-20T11:27:43.462Z,2.80
2018-09-20T11:30:11.937Z,2.97
2018-09-20T11:32:40.477Z,3.00
2018-09-20T11:35:09.300Z,3.30
2018-09-20T11:37:37.788Z,3.20
2018-09-20T11:40:06.340Z,3.27
2018-09-20T11:42:34.822Z,2.63
2018-09-20T11:45:03.296Z,3.20
2018-09-20T11:47:31.763Z,2.87
2018-09-20T11:50:00.266Z,3.63
2018-09-20T11:52:28.790Z,3.23
2018-09-20T11:54:57.300Z,3.27
2018-09-20T11:57:25.760Z,2.97
2018-09-20T11:59:54.203Z,3.10
2018-09-20T12:02:22.769Z,3.20
2018-09-20T12:04:51.206Z,3.10
2018-09-20T12:07:19.743Z,2.83
2018-09-20T12:09:48.263Z,3.20
2018-09-20T12:12:16.706Z,3.63
2018-09-20T12:14:45.786Z,3.07
2018-09-20T12:17:14.292Z,3.03
2018-09-20T12:19:42.784Z,3.17
2018-09-20T12:22:11.252Z,2.83
2018-09-20T12:24:39.950Z,3.00
2018-09-20T12:27:08.434Z,3.00
2018-09-20T12:29:37.036Z,3.10
2018-09-20T12:32:05.598Z,3.07
2018-09-20T12:34:34.324Z,3.10
2018-09-20T12:37:02.776Z,3.00
2018-09-20T12:39:31.267Z,2.90
2018-09-20T12:41:59.718Z,3.03
2018-09-20T12:44:28.996Z,3.10
2018-09-20T12:46:57.623Z,2.73
2018-09-20T12:49:26.078Z,2.53
2018-09-20T12:51:54.564Z,3.10
2018-09-20T12:54:23.043Z,2.97
2018-09-20T12:56:51.534Z,2.50
2018-09-20T12:59:20.040Z,2.60
2018-09-20T13:01:48.575Z,3.10
2018-09-20T13:04:17.067Z,2.83
2018-09-20T13:06:45.608Z,2.43
2018-09-20T13:09:14.081Z,2.77
2018-09-20T13:11:42.581Z,3.03
2018-09-20T13:14:11.068Z,2.87
2018-09-20T13:16:39.577Z,2.80
2018-09-20T13:19:08.089Z,3.00
2018-09-20T13:21:36.626Z,2.77
2018-09-20T13:24:05.098Z,2.60
2018-09-20T13:26:33.624Z,2.70
2018-09-20T13:29:02.103Z,2.40
2018-09-20T13:31:30.589Z,2.60
2018-09-20T13:33:59.074Z,2.50
2018-09-20T13:36:27.669Z,2.63
2018-09-20T13:38:56.172Z,2.70
2018-09-20T13:41:25.338Z,2.83
2018-09-20T13:43:53.827Z,2.70
2018-09-20T13:46:22.363Z,2.73
2018-09-20T13:48:50.839Z,3.20
2018-09-20T13:51:19.308Z,2.73
2018-09-20T13:53:47.754Z,2.77
2018-09-20T13:56:16.235Z,2.43
2018-09-20T13:58:47.578Z,2.50
2018-09-20T14:01:16.564Z,2.93
2018-09-20T14:03:45.117Z,2.53
2018-09-20T14:06:13.852Z,2.80
2018-09-20T14:08:42.341Z,2.40
2018-09-20T14:11:10.840Z,2.73
2018-09-20T14:13:39.278Z,2.73
2018-09-20T14:16:07.753Z,2.73
2018-09-20T14:18:36.284Z,2.80
2018-09-20T14:21:04.820Z,3.30
2018-09-20T14:23:33.286Z,2.90
2018-09-20T14:26:01.768Z,2.67
2018-09-20T14:28:30.239Z,3.10
2018-09-20T14:30:58.706Z,2.57
2018-09-20T14:33:27.159Z,2.60
2018-09-20T14:35:55.662Z,2.57
2018-09-20T14:38:24.138Z,2.60
2018-09-20T14:40:52.603Z,2.43
2018-09-20T14:43:21.131Z,2.70
2018-09-20T14:45:49.579Z,2.90
2018-09-20T14:48:18.063Z,2.60
2018-09-20T14:50:46.612Z,2.87
2018-09-20T14:53:15.325Z,2.90
2018-09-20T14:55:43.845Z,2.80
2018-09-20T14:58:12.352Z,2.70
2018-09-20T15:00:40.856Z,2.30
2018-09-20T15:03:09.339Z,2.63
2018-09-20T15:05:37.905Z,2.50
2018-09-20T15:08:06.473Z,2.53
2018-09-20T15:10:34.999Z,2.40
2018-09-20T15:13:03.502Z,2.60
2018-09-20T15:15:31.970Z,2.77
2018-09-20T15:18:00.402Z,2.57
2018-09-20T15:20:29.013Z,2.67
2018-09-20T15:22:57.625Z,1.90
2018-09-20T15:25:26.722Z,2.40
2018-09-20T15:27:55.226Z,2.53
2018-09-20T15:30:23.707Z,2.30
2018-09-20T15:32:52.188Z,2.40
2018-09-20T15:35:20.688Z,2.40
2018-09-20T15:37:49.137Z,2.30
2018-09-20T15:40:17.695Z,2.37
2018-09-20T15:42:46.162Z,2.43
2018-09-20T15:45:14.652Z,2.67
2018-09-20T15:47:43.123Z,2.67
2018-09-20T15:50:11.637Z,2.57
2018-09-20T15:52:40.186Z,2.27
2018-09-20T15:55:08.684Z,2.70
2018-09-20T15:57:37.237Z,2.60
2018-09-20T16:00:06.020Z,2.63
2018-09-20T16:02:34.482Z,2.80
2018-09-20T16:05:02.953Z,2.90
2018-09-20T16:07:31.426Z,2.73
2018-09-20T16:09:59.880Z,2.33
2018-09-20T16:12:28.402Z,2.43
2018-09-20T16:14:57.351Z,2.43
2018-09-20T16:17:25.806Z,2.47
2018-09-20T16:19:55.232Z,2.80
2018-09-20T16:22:25.150Z,2.47
2018-09-20T16:24:54.230Z,2.50
2018-09-20T16:27:22.806Z,2.30
2018-09-20T16:30:02.242Z,2.60
2018-09-20T16:32:47.426Z,2.60
2018-09-20T16:35:26.728Z,2.60
2018-09-20T16:38:07.146Z,2.47
2018-09-20T16:40:38.148Z,3.00
2018-09-20T16:43:06.586Z,2.90
2018-09-20T16:45:35.090Z,2.60
2018-09-20T16:48:03.546Z,2.80
2018-09-20T16:50:31.970Z,2.90
2018-09-20T16:53:00.603Z,2.37
2018-09-20T16:55:29.036Z,2.83
2018-09-20T16:57:57.602Z,2.67
2018-09-20T17:00:26.120Z,2.63
2018-09-20T17:02:54.542Z,2.63
2018-09-20T17:05:23.010Z,2.50
2018-09-20T17:07:51.518Z,2.47
2018-09-20T17:10:19.949Z,2.63
2018-09-20T17:12:48.413Z,2.57
2018-09-20T17:15:16.892Z,2.70
2018-09-20T17:17:45.371Z,2.37
2018-09-20T17:20:13.809Z,2.70
2018-09-20T17:22:42.546Z,2.70
2018-09-20T17:25:11.026Z,2.57
2018-09-20T17:27:39.486Z,2.70
2018-09-20T17:30:08.027Z,2.27
2018-09-20T17:32:36.474Z,2.60
2018-09-20T17:35:05.091Z,2.63
2018-09-20T17:37:34.402Z,2.57
2018-09-20T17:40:03.118Z,2.73
2018-09-20T17:42:32.813Z,2.70
2018-09-20T17:45:01.334Z,2.80
2018-09-20T17:47:29.888Z,2.87
2018-09-20T17:50:00.308Z,2.80
2018-09-20T17:52:29.135Z,2.40
2018-09-20T17:54:58.148Z,2.53
2018-09-20T17:57:27.132Z,3.23
2018-09-20T17:59:55.626Z,3.00
2018-09-20T18:02:24.108Z,2.83
2018-09-20T18:04:52.625Z,3.10
2018-09-20T18:07:21.137Z,2.90
2018-09-20T18:09:49.593Z,3.13
2018-09-20T18:12:18.077Z,2.93
2018-09-20T18:14:46.545Z,2.87
2018-09-20T18:17:15.898Z,2.90
2018-09-20T18:19:44.355Z,3.17
2018-09-20T18:22:12.851Z,2.97
2018-09-20T18:24:41.367Z,3.20
2018-09-20T18:27:09.844Z,3.10
2018-09-20T18:29:38.652Z,3.00
2018-09-20T18:32:07.163Z,2.83
2018-09-20T18:34:35.631Z,2.77
2018-09-20T18:37:04.149Z,3.20
2018-09-20T18:39:32.600Z,3.30
2018-09-20T18:42:01.161Z,3.27
2018-09-20T18:44:30.282Z,3.20
2018-09-20T18:46:58.757Z,2.70
2018-09-20T18:49:27.219Z,3.57
2018-09-20T18:51:55.708Z,3.00
2018-09-20T18:54:24.210Z,3.10
2018-09-20T18:56:52.801Z,2.90
2018-09-20T18:59:21.297Z,3.57
2018-09-20T19:01:49.831Z,3.27
2018-09-20T19:04:19.270Z,3.90
2018-09-20T19:06:47.792Z,3.80
2018-09-20T19:09:16.528Z,3.40
2018-09-20T19:11:45.010Z,4.00
2018-09-20T19:14:13.482Z,4.47
2018-09-20T19:16:41.965Z,4.73
2018-09-20T19:19:10.522Z,5.27
2018-09-20T19:21:39.057Z,4.83
2018-09-20T19:24:07.555Z,4.70
2018-09-20T19:26:36.026Z,4.50
2018-09-20T19:29:04.548Z,4.40
2018-09-20T19:31:33.076Z,4.60
2018-09-20T19:34:01.566Z,4.03
2018-09-20T19:36:30.038Z,4.33
2018-09-20T19:38:58.505Z,3.80
2018-09-20T19:41:26.950Z,4.00
2018-09-20T19:43:55.493Z,3.77
2018-09-20T19:46:23.946Z,3.60
2018-09-20T19:48:52.429Z,3.60
2018-09-20T19:51:20.873Z,3.67
2018-09-20T19:53:49.357Z,3.00
2018-09-20T19:56:18.461Z,2.90
2018-09-20T19:58:47.034Z,3.47
2018-09-20T20:01:15.552Z,3.53
2018-09-20T20:03:44.053Z,3.70
2018-09-20T20:06:12.529Z,3.37
2018-09-20T20:08:41.052Z,3.70
2018-09-20T20:11:09.454Z,3.90
2018-09-20T20:13:37.928Z,3.37
2018-09-20T20:16:06.514Z,3.77
2018-09-20T20:18:34.986Z,3.50
2018-09-20T20:21:03.587Z,3.90
2018-09-20T20:23:32.031Z,3.60
2018-09-20T20:26:00.720Z,3.50
2018-09-20T20:28:29.270Z,2.93
2018-09-20T20:30:57.737Z,3.13
2018-09-20T20:33:26.204Z,3.20
2018-09-20T20:35:54.678Z,2.90
2018-09-20T20:38:23.183Z,3.23
2018-09-20T20:40:51.602Z,3.17
2018-09-20T20:43:20.046Z,3.40
2018-09-20T20:45:49.028Z,3.10
2018-09-20T20:48:17.590Z,3.10
2018-09-20T20:50:46.116Z,3.07
2018-09-20T20:53:14.588Z,3.23
2018-09-20T20:55:43.163Z,2.90
2018-09-20T20:58:11.651Z,2.80
2018-09-20T21:00:40.207Z,3.40
2018-09-20T21:03:08.743Z,3.33
2018-09-20T21:05:37.199Z,3.57
2018-09-20T21:08:05.727Z,3.37
2018-09-20T21:10:34.310Z,3.57
2018-09-20T21:13:02.755Z,3.47
2018-09-20T21:15:31.206Z,3.73
2018-09-20T21:17:59.754Z,3.60
2018-09-20T21:20:28.236Z,3.27
2018-09-20T21:22:56.653Z,3.30
2018-09-20T21:25:25.113Z,3.80
2018-09-20T21:27:53.701Z,3.13
2018-09-20T21:30:22.246Z,3.27
2018-09-20T21:32:50.693Z,3.10
2018-09-20T21:35:19.145Z,3.43
2018-09-20T21:37:47.591Z,3.40
2018-09-20T21:40:16.035Z,3.30
2018-09-20T21:42:44.609Z,3.33
2018-09-20T21:45:13.018Z,3.33
2018-09-20T21:47:41.470Z,3.60
2018-09-20T21:50:09.944Z,3.43
2018-09-20T21:52:38.382Z,3.40
2018-09-20T21:55:06.874Z,3.27
2018-09-20T21:57:35.332Z,3.87
2018-09-20T22:00:04.916Z,3.67
2018-09-20T22:02:38.764Z,3.87
2018-09-20T22:05:07.334Z,3.67
2018-09-20T22:07:35.750Z,4.00
2018-09-20T22:10:04.266Z,3.80
2018-09-20T22:12:32.834Z,3.30
2018-09-20T22:15:01.330Z,3.30
2018-09-20T22:17:29.778Z,3.70
2018-09-20T22:19:58.266Z,3.53
2018-09-20T22:22:26.726Z,3.10
2018-09-20T22:24:55.266Z,3.73
2018-09-20T22:27:23.847Z,3.43
2018-09-20T22:29:52.271Z,3.70
2018-09-20T22:32:20.751Z,3.43
2018-09-20T22:34:49.176Z,3.87
2018-09-20T22:37:17.616Z,3.70
2018-09-20T22:39:46.148Z,3.73
2018-09-20T22:42:14.552Z,3.63
2018-09-20T22:44:43.023Z,3.90
2018-09-20T22:47:11.470Z,3.30
2018-09-20T22:49:39.947Z,3.80
2018-09-20T22:52:08.376Z,3.33
2018-09-20T22:54:36.938Z,4.00
2018-09-20T22:57:05.498Z,3.60
2018-09-20T22:59:33.922Z,3.80
2018-09-20T23:02:02.410Z,4.07
2018-09-20T23:04:30.843Z,3.83
2018-09-20T23:06:59.332Z,3.27
2018-09-20T23:09:27.801Z,3.33
2018-09-20T23:11:56.269Z,3.33
2018-09-20T23:14:24.781Z,4.00
2018-09-20T23:16:53.831Z,3.53
2018-09-20T23:19:22.268Z,3.40
2018-09-20T23:21:51.713Z,3.80
2018-09-20T23:24:20.219Z,3.70
2018-09-20T23:26:48.682Z,3.60
2018-09-20T23:29:17.157Z,3.60
2018-09-20T23:31:45.635Z,3.77
2018-09-20T23:34:14.160Z,3.90
2018-09-20T23:36:42.593Z,3.67
2018-09-20T23:39:13.101Z,4.03
2018-09-20T23:41:41.793Z,3.47
2018-09-20T23:44:10.233Z,3.77
2018-09-20T23:46:39.465Z,3.70
2018-09-20T23:49:08.004Z,3.50
2018-09-20T23:51:36.457Z,3.90
2018-09-20T23:54:04.968Z,4.00
2018-09-20T23:56:33.455Z,3.63
2018-09-20T23:59:01.900Z,3.70
